Terminal Aerodrome Forecast
Issued by NWS St Louis, MO

Home | Current Version | Previous Version | Text Only | Print | Product List | Glossary On
Versions: 1 2 3 4 5 6 7 8 9 10 11 12 13 14 15 16 17 18 19 20 21 22 23 24 25 26 27 28 29 30 31 32 33
000
FTUS43 KLSX 251700
TAFSTL
TAF
KSTL 251731Z 2518/2624 34005KT P6SM FEW015 SCT150 BKN250
     FM252100 04007KT P6SM SCT150 BKN250
     FM260000 02012KT 5SM -SHRA VCTS SCT040CB BKN080
     FM260600 34012KT 3SM -RA BR SCT007 OVC015
     FM261200 33012KT P6SM BKN080
     FM261500 32012KT P6SM SKC=

USA.gov is the U.S. government's official web portal to all federal, state and local government web resources and services.